KDEH/DEH METAR and TAF weather

Enter ICAO airport designator
Station Type Date Time Source
KDEH METAR 2018/06/25 16:55 UTC NOAA

KDEH 251655Z AUTO 13010G16KT 10SM CLR 23/16 A3008 RMK AO2


Station Type Date Time Source
KDEH Decoded METAR 2018/06/25 16:55 UTC NOAA

Decorah, IA, United States (KDEH) 43-17N 091-44W
Jun 25, 2018 - 12:55 PM EDT / 2018.06.25 1655 UTC
Wind: from the SE (130 degrees) at 12 MPH (10 KT) gusting to 18 MPH (16 KT):0
Visibility: 10 mile(s):0
Sky conditions: clear
Temperature: 73 F (23 C)
Dew Point: 60 F (16 C)
Relative Humidity: 64%
Pressure (altimeter): 30.08 in. Hg (1018 hPa)
ob: KDEH 251655Z AUTO 13010G16KT 10SM CLR 23/16 A3008 RMK AO2
cycle: 17

Station Type Date Time Source
KDEH TAF UTC NOAA

Error!


Example: see airport list